sensor_id;sensor_type;location;lat;lon;timestamp;pressure;altitude;pressure_sealevel;temperature;humidity
86083;BME280;76693;50.220;14.298;2024-02-26T00:01:27;98126.88;;;0.90;84.25
86083;BME280;76693;50.220;14.298;2024-02-26T00:03:53;98123.38;;;0.88;84.61
86083;BME280;76693;50.220;14.298;2024-02-26T00:06:20;98130.75;;;0.99;84.29
86083;BME280;76693;50.220;14.298;2024-02-26T00:08:46;98121.22;;;1.12;84.18
86083;BME280;76693;50.220;14.298;2024-02-26T00:11:11;98120.75;;;1.03;84.73
86083;BME280;76693;50.220;14.298;2024-02-26T00:13:36;98124.13;;;1.19;84.19
86083;BME280;76693;50.220;14.298;2024-02-26T00:16:03;98116.06;;;1.10;84.91
86083;BME280;76693;50.220;14.298;2024-02-26T00:18:29;98119.06;;;1.19;84.69
86083;BME280;76693;50.220;14.298;2024-02-26T00:20:54;98123.34;;;1.20;84.99
86083;BME280;76693;50.220;14.298;2024-02-26T00:23:19;98120.50;;;1.14;85.35
86083;BME280;76693;50.220;14.298;2024-02-26T00:25:45;98112.09;;;1.15;85.56
86083;BME280;76693;50.220;14.298;2024-02-26T00:28:10;98113.28;;;1.40;85.33
86083;BME280;76693;50.220;14.298;2024-02-26T00:30:36;98103.84;;;1.37;85.29
86083;BME280;76693;50.220;14.298;2024-02-26T00:33:01;98106.75;;;1.45;84.91
86083;BME280;76693;50.220;14.298;2024-02-26T00:35:26;98101.78;;;1.30;86.11
86083;BME280;76693;50.220;14.298;2024-02-26T00:37:52;98106.53;;;1.22;85.96
86083;BME280;76693;50.220;14.298;2024-02-26T00:40:17;98096.16;;;1.36;86.05
86083;BME280;76693;50.220;14.298;2024-02-26T00:42:43;98097.91;;;1.37;86.33
86083;BME280;76693;50.220;14.298;2024-02-26T00:45:11;98099.84;;;1.24;88.82
86083;BME280;76693;50.220;14.298;2024-02-26T00:47:37;98098.75;;;1.19;88.92
86083;BME280;76693;50.220;14.298;2024-02-26T00:50:02;98097.50;;;0.95;89.71
86083;BME280;76693;50.220;14.298;2024-02-26T00:52:28;98093.63;;;1.02;89.84
86083;BME280;76693;50.220;14.298;2024-02-26T00:54:53;98095.84;;;0.95;89.56
86083;BME280;76693;50.220;14.298;2024-02-26T00:57:18;98102.59;;;0.95;89.29
86083;BME280;76693;50.220;14.298;2024-02-26T00:59:44;98092.16;;;0.72;87.74
86083;BME280;76693;50.220;14.298;2024-02-26T01:02:09;98095.00;;;0.62;88.98
86083;BME280;76693;50.220;14.298;2024-02-26T01:04:34;98085.25;;;0.70;88.67
86083;BME280;76693;50.220;14.298;2024-02-26T01:07:00;98074.41;;;0.56;88.55
86083;BME280;76693;50.220;14.298;2024-02-26T01:09:25;98067.09;;;0.62;88.03
86083;BME280;76693;50.220;14.298;2024-02-26T01:11:50;98067.09;;;0.62;87.14
86083;BME280;76693;50.220;14.298;2024-02-26T01:14:16;98064.72;;;0.49;87.27
86083;BME280;76693;50.220;14.298;2024-02-26T01:16:41;98070.88;;;0.38;87.27
86083;BME280;76693;50.220;14.298;2024-02-26T01:19:06;98064.41;;;0.43;86.97
86083;BME280;76693;50.220;14.298;2024-02-26T01:21:31;98061.00;;;0.26;87.54
86083;BME280;76693;50.220;14.298;2024-02-26T01:23:57;98068.13;;;0.33;87.29
86083;BME280;76693;50.220;14.298;2024-02-26T01:26:22;98066.78;;;0.23;87.43
86083;BME280;76693;50.220;14.298;2024-02-26T01:28:48;98059.16;;;0.07;88.30
86083;BME280;76693;50.220;14.298;2024-02-26T01:31:13;98058.97;;;0.04;88.34
86083;BME280;76693;50.220;14.298;2024-02-26T01:33:38;98059.50;;;0.13;87.88
86083;BME280;76693;50.220;14.298;2024-02-26T01:36:04;98057.41;;;0.06;86.92
86083;BME280;76693;50.220;14.298;2024-02-26T01:38:29;98060.56;;;0.02;86.37
86083;BME280;76693;50.220;14.298;2024-02-26T01:40:55;98052.34;;;0.06;88.34
86083;BME280;76693;50.220;14.298;2024-02-26T01:43:20;98053.13;;;0.05;87.79
86083;BME280;76693;50.220;14.298;2024-02-26T01:45:46;98043.94;;;0.07;87.48
86083;BME280;76693;50.220;14.298;2024-02-26T01:48:12;98048.31;;;0.10;87.61
86083;BME280;76693;50.220;14.298;2024-02-26T01:50:40;98041.88;;;0.33;86.79
86083;BME280;76693;50.220;14.298;2024-02-26T01:53:06;98037.94;;;0.21;86.98
86083;BME280;76693;50.220;14.298;2024-02-26T01:55:33;98032.94;;;0.23;86.66
86083;BME280;76693;50.220;14.298;2024-02-26T01:57:58;98040.94;;;0.14;86.17
86083;BME280;76693;50.220;14.298;2024-02-26T02:00:25;98027.94;;;0.24;86.48
86083;BME280;76693;50.220;14.298;2024-02-26T02:02:51;98031.28;;;0.23;86.29
86083;BME280;76693;50.220;14.298;2024-02-26T02:05:17;98029.84;;;0.29;86.35
86083;BME280;76693;50.220;14.298;2024-02-26T02:07:43;98033.34;;;0.31;86.29
86083;BME280;76693;50.220;14.298;2024-02-26T02:10:09;98037.91;;;0.38;86.01
86083;BME280;76693;50.220;14.298;2024-02-26T02:12:34;98033.66;;;0.37;85.97
86083;BME280;76693;50.220;14.298;2024-02-26T02:15:01;98030.00;;;0.32;86.35
86083;BME280;76693;50.220;14.298;2024-02-26T02:17:27;98045.38;;;0.35;86.30
86083;BME280;76693;50.220;14.298;2024-02-26T02:19:53;98040.44;;;0.38;86.86
86083;BME280;76693;50.220;14.298;2024-02-26T02:22:18;98033.88;;;0.58;85.74
86083;BME280;76693;50.220;14.298;2024-02-26T02:24:45;98040.94;;;0.63;84.76
86083;BME280;76693;50.220;14.298;2024-02-26T02:27:10;98037.91;;;0.54;85.39
86083;BME280;76693;50.220;14.298;2024-02-26T02:29:36;98031.44;;;0.59;85.04
86083;BME280;76693;50.220;14.298;2024-02-26T02:32:02;98034.31;;;0.67;85.43
86083;BME280;76693;50.220;14.298;2024-02-26T02:34:28;98032.44;;;0.63;84.90
86083;BME280;76693;50.220;14.298;2024-02-26T02:36:54;98033.47;;;0.66;85.14
86083;BME280;76693;50.220;14.298;2024-02-26T02:39:20;98032.75;;;0.69;84.52
86083;BME280;76693;50.220;14.298;2024-02-26T02:41:45;98037.59;;;0.64;84.90
86083;BME280;76693;50.220;14.298;2024-02-26T02:44:11;98036.72;;;0.64;85.42
86083;BME280;76693;50.220;14.298;2024-02-26T02:46:36;98034.56;;;0.71;84.64
86083;BME280;76693;50.220;14.298;2024-02-26T02:49:02;98024.94;;;0.82;84.79
86083;BME280;76693;50.220;14.298;2024-02-26T02:51:27;98021.22;;;0.75;84.61
86083;BME280;76693;50.220;14.298;2024-02-26T02:53:53;98024.25;;;0.85;85.84
86083;BME280;76693;50.220;14.298;2024-02-26T02:56:19;98030.28;;;0.70;86.99
86083;BME280;76693;50.220;14.298;2024-02-26T02:58:44;98031.34;;;0.92;86.68
86083;BME280;76693;50.220;14.298;2024-02-26T03:01:10;98038.41;;;0.63;85.86
86083;BME280;76693;50.220;14.298;2024-02-26T03:03:35;98035.69;;;0.77;87.77
86083;BME280;76693;50.220;14.298;2024-02-26T03:06:02;98038.88;;;0.40;87.77
86083;BME280;76693;50.220;14.298;2024-02-26T03:08:28;98046.50;;;0.23;89.16
86083;BME280;76693;50.220;14.298;2024-02-26T03:10:53;98043.94;;;0.23;88.85
86083;BME280;76693;50.220;14.298;2024-02-26T03:13:18;98052.19;;;0.19;89.30
86083;BME280;76693;50.220;14.298;2024-02-26T03:15:44;98053.47;;;0.28;89.05
86083;BME280;76693;50.220;14.298;2024-02-26T03:18:09;98053.47;;;0.60;90.61
86083;BME280;76693;50.220;14.298;2024-02-26T03:20:34;98049.19;;;0.43;90.52
86083;BME280;76693;50.220;14.298;2024-02-26T03:22:59;98041.72;;;0.62;88.42
86083;BME280;76693;50.220;14.298;2024-02-26T03:25:25;98044.25;;;0.62;87.66
86083;BME280;76693;50.220;14.298;2024-02-26T03:27:50;98050.59;;;0.54;87.03
86083;BME280;76693;50.220;14.298;2024-02-26T03:30:16;98052.25;;;0.21;89.13
86083;BME280;76693;50.220;14.298;2024-02-26T03:32:41;98051.09;;;0.47;88.82
86083;BME280;76693;50.220;14.298;2024-02-26T03:35:06;98050.28;;;0.32;88.85
86083;BME280;76693;50.220;14.298;2024-02-26T03:37:33;98051.88;;;0.62;87.15
86083;BME280;76693;50.220;14.298;2024-02-26T03:39:58;98047.75;;;0.48;87.65
86083;BME280;76693;50.220;14.298;2024-02-26T03:42:24;98044.41;;;0.49;88.25
86083;BME280;76693;50.220;14.298;2024-02-26T03:44:49;98051.56;;;0.23;88.51
86083;BME280;76693;50.220;14.298;2024-02-26T03:47:16;98057.44;;;0.39;90.63
86083;BME280;76693;50.220;14.298;2024-02-26T03:49:41;98059.06;;;0.55;89.66
86083;BME280;76693;50.220;14.298;2024-02-26T03:52:06;98059.41;;;0.28;87.88
86083;BME280;76693;50.220;14.298;2024-02-26T03:54:32;98054.78;;;0.70;89.24
86083;BME280;76693;50.220;14.298;2024-02-26T03:56:57;98049.97;;;0.58;87.44
86083;BME280;76693;50.220;14.298;2024-02-26T03:59:22;98056.53;;;0.71;89.85
86083;BME280;76693;50.220;14.298;2024-02-26T04:01:50;98057.25;;;0.68;89.30
86083;BME280;76693;50.220;14.298;2024-02-26T04:04:15;98069.16;;;0.37;88.93
86083;BME280;76693;50.220;14.298;2024-02-26T04:06:44;98056.47;;;0.53;89.17
86083;BME280;76693;50.220;14.298;2024-02-26T04:09:09;98046.50;;;0.56;88.75
86083;BME280;76693;50.220;14.298;2024-02-26T04:11:35;98054.03;;;0.38;89.61
86083;BME280;76693;50.220;14.298;2024-02-26T04:14:00;98052.03;;;0.65;89.18
86083;BME280;76693;50.220;14.298;2024-02-26T04:16:26;98047.72;;;0.81;90.36
86083;BME280;76693;50.220;14.298;2024-02-26T04:18:51;98058.13;;;0.69;88.88
86083;BME280;76693;50.220;14.298;2024-02-26T04:21:19;98052.47;;;0.74;88.41
86083;BME280;76693;50.220;14.298;2024-02-26T04:23:44;98056.44;;;0.86;89.38
86083;BME280;76693;50.220;14.298;2024-02-26T04:26:10;98056.19;;;0.97;89.61
86083;BME280;76693;50.220;14.298;2024-02-26T04:28:35;98044.00;;;1.08;88.01
86083;BME280;76693;50.220;14.298;2024-02-26T04:31:01;98054.06;;;1.23;88.24
86083;BME280;76693;50.220;14.298;2024-02-26T04:33:26;98062.41;;;1.04;88.82
86083;BME280;76693;50.220;14.298;2024-02-26T04:35:52;98046.66;;;1.28;88.30
86083;BME280;76693;50.220;14.298;2024-02-26T04:38:17;98046.44;;;1.41;87.05
86083;BME280;76693;50.220;14.298;2024-02-26T04:40:43;98055.94;;;1.45;87.14
86083;BME280;76693;50.220;14.298;2024-02-26T04:43:08;98051.44;;;1.57;87.55
86083;BME280;76693;50.220;14.298;2024-02-26T04:45:33;98052.31;;;1.58;86.55
86083;BME280;76693;50.220;14.298;2024-02-26T04:47:59;98041.50;;;1.44;87.10
86083;BME280;76693;50.220;14.298;2024-02-26T04:50:24;98042.22;;;1.59;86.65
86083;BME280;76693;50.220;14.298;2024-02-26T04:52:50;98047.56;;;1.30;85.79
86083;BME280;76693;50.220;14.298;2024-02-26T04:55:15;98044.16;;;1.11;87.43
86083;BME280;76693;50.220;14.298;2024-02-26T04:57:40;98048.81;;;0.86;87.51
86083;BME280;76693;50.220;14.298;2024-02-26T05:00:06;98047.72;;;0.81;88.62
86083;BME280;76693;50.220;14.298;2024-02-26T05:02:31;98050.97;;;1.12;88.66
86083;BME280;76693;50.220;14.298;2024-02-26T05:04:58;98052.44;;;1.07;87.52
86083;BME280;76693;50.220;14.298;2024-02-26T05:07:24;98052.38;;;1.06;88.15
86083;BME280;76693;50.220;14.298;2024-02-26T05:09:49;98051.88;;;1.31;88.03
86083;BME280;76693;50.220;14.298;2024-02-26T05:12:15;98061.31;;;1.51;86.94
86083;BME280;76693;50.220;14.298;2024-02-26T05:14:40;98055.50;;;1.54;87.21
86083;BME280;76693;50.220;14.298;2024-02-26T05:17:05;98056.97;;;1.66;85.82
86083;BME280;76693;50.220;14.298;2024-02-26T05:19:31;98061.03;;;1.45;86.19
86083;BME280;76693;50.220;14.298;2024-02-26T05:21:56;98065.09;;;1.59;87.24
86083;BME280;76693;50.220;14.298;2024-02-26T05:24:22;98061.03;;;1.45;87.57
86083;BME280;76693;50.220;14.298;2024-02-26T05:26:47;98064.34;;;1.26;88.90
86083;BME280;76693;50.220;14.298;2024-02-26T05:29:13;98059.84;;;1.20;89.47
86083;BME280;76693;50.220;14.298;2024-02-26T05:31:38;98066.06;;;1.09;88.89
86083;BME280;76693;50.220;14.298;2024-02-26T05:34:03;98075.47;;;0.94;90.31
86083;BME280;76693;50.220;14.298;2024-02-26T05:36:29;98073.94;;;1.14;90.30
86083;BME280;76693;50.220;14.298;2024-02-26T05:38:59;98085.78;;;0.97;90.07
86083;BME280;76693;50.220;14.298;2024-02-26T05:41:24;98067.34;;;1.01;89.95
86083;BME280;76693;50.220;14.298;2024-02-26T05:43:52;98073.56;;;1.24;91.18
86083;BME280;76693;50.220;14.298;2024-02-26T05:46:18;98081.88;;;1.04;88.83
86083;BME280;76693;50.220;14.298;2024-02-26T05:48:48;98087.66;;;1.01;90.13
86083;BME280;76693;50.220;14.298;2024-02-26T05:51:13;98084.94;;;1.14;89.47
86083;BME280;76693;50.220;14.298;2024-02-26T05:53:40;98083.34;;;1.16;89.90
86083;BME280;76693;50.220;14.298;2024-02-26T05:56:06;98089.69;;;1.24;90.23
86083;BME280;76693;50.220;14.298;2024-02-26T05:58:31;98085.41;;;1.23;89.41
86083;BME280;76693;50.220;14.298;2024-02-26T06:00:57;98098.28;;;1.10;90.20
86083;BME280;76693;50.220;14.298;2024-02-26T06:03:24;98096.22;;;1.55;90.37
86083;BME280;76693;50.220;14.298;2024-02-26T06:05:50;98100.09;;;1.65;87.90
86083;BME280;76693;50.220;14.298;2024-02-26T06:08:15;98102.22;;;1.21;89.24
86083;BME280;76693;50.220;14.298;2024-02-26T06:10:40;98108.53;;;0.95;90.22
86083;BME280;76693;50.220;14.298;2024-02-26T06:13:06;98106.44;;;1.39;90.23
86083;BME280;76693;50.220;14.298;2024-02-26T06:15:31;98104.81;;;1.57;89.32
86083;BME280;76693;50.220;14.298;2024-02-26T06:17:56;98091.06;;;1.89;87.77
86083;BME280;76693;50.220;14.298;2024-02-26T06:20:22;98093.91;;;1.95;87.48
86083;BME280;76693;50.220;14.298;2024-02-26T06:22:47;98097.78;;;1.87;85.97
86083;BME280;76693;50.220;14.298;2024-02-26T06:25:12;98100.22;;;1.68;87.35
86083;BME280;76693;50.220;14.298;2024-02-26T06:27:38;98103.56;;;1.85;87.57
86083;BME280;76693;50.220;14.298;2024-02-26T06:30:04;98099.13;;;2.16;85.00
86083;BME280;76693;50.220;14.298;2024-02-26T06:32:31;98099.06;;;1.97;86.15
86083;BME280;76693;50.220;14.298;2024-02-26T06:34:57;98112.78;;;2.00;86.50
86083;BME280;76693;50.220;14.298;2024-02-26T06:37:22;98113.56;;;2.17;86.33
86083;BME280;76693;50.220;14.298;2024-02-26T06:39:48;98109.44;;;2.39;85.40
86083;BME280;76693;50.220;14.298;2024-02-26T06:42:13;98116.19;;;2.75;85.03
86083;BME280;76693;50.220;14.298;2024-02-26T06:44:38;98116.63;;;2.86;84.29
86083;BME280;76693;50.220;14.298;2024-02-26T06:47:04;98118.31;;;2.86;83.94
86083;BME280;76693;50.220;14.298;2024-02-26T06:49:29;98120.28;;;2.91;83.98
86083;BME280;76693;50.220;14.298;2024-02-26T06:51:55;98125.69;;;2.60;84.93
86083;BME280;76693;50.220;14.298;2024-02-26T06:54:20;98117.59;;;2.49;85.49
86083;BME280;76693;50.220;14.298;2024-02-26T06:56:46;98118.38;;;2.68;85.29
86083;BME280;76693;50.220;14.298;2024-02-26T06:59:11;98119.94;;;2.45;84.56
86083;BME280;76693;50.220;14.298;2024-02-26T07:01:37;98125.34;;;2.72;84.21
86083;BME280;76693;50.220;14.298;2024-02-26T07:04:02;98122.06;;;2.94;83.01
86083;BME280;76693;50.220;14.298;2024-02-26T07:06:27;98130.47;;;3.32;83.31
86083;BME280;76693;50.220;14.298;2024-02-26T07:08:53;98123.31;;;3.44;82.58
86083;BME280;76693;50.220;14.298;2024-02-26T07:11:19;98127.25;;;3.78;81.72
86083;BME280;76693;50.220;14.298;2024-02-26T07:13:48;98128.19;;;3.80;81.41
86083;BME280;76693;50.220;14.298;2024-02-26T07:16:15;98122.09;;;3.34;82.67
86083;BME280;76693;50.220;14.298;2024-02-26T07:18:41;98127.81;;;3.09;81.54
86083;BME280;76693;50.220;14.298;2024-02-26T07:21:09;98123.19;;;3.41;82.25
86083;BME280;76693;50.220;14.298;2024-02-26T07:23:35;98124.97;;;3.63;81.23
86083;BME280;76693;50.220;14.298;2024-02-26T07:26:00;98115.94;;;3.50;81.05
86083;BME280;76693;50.220;14.298;2024-02-26T07:28:26;98121.97;;;3.52;81.36
86083;BME280;76693;50.220;14.298;2024-02-26T07:30:51;98119.41;;;3.52;82.35
86083;BME280;76693;50.220;14.298;2024-02-26T07:33:16;98124.38;;;3.49;81.68
86083;BME280;76693;50.220;14.298;2024-02-26T07:35:41;98118.66;;;3.75;81.66
86083;BME280;76693;50.220;14.298;2024-02-26T07:38:07;98120.75;;;3.86;81.35
86083;BME280;76693;50.220;14.298;2024-02-26T07:40:32;98130.06;;;4.06;81.57
86083;BME280;76693;50.220;14.298;2024-02-26T07:42:58;98131.44;;;3.98;81.06
86083;BME280;76693;50.220;14.298;2024-02-26T07:45:23;98137.22;;;4.37;79.19
86083;BME280;76693;50.220;14.298;2024-02-26T07:47:48;98133.59;;;4.77;81.45
86083;BME280;76693;50.220;14.298;2024-02-26T07:50:14;98131.09;;;4.79;80.27
86083;BME280;76693;50.220;14.298;2024-02-26T07:52:40;98123.84;;;4.67;81.40
86083;BME280;76693;50.220;14.298;2024-02-26T07:55:06;98138.28;;;4.89;83.26
86083;BME280;76693;50.220;14.298;2024-02-26T07:57:34;98139.88;;;4.40;80.98
86083;BME280;76693;50.220;14.298;2024-02-26T08:00:00;98140.34;;;4.53;81.05
86083;BME280;76693;50.220;14.298;2024-02-26T08:02:25;98141.78;;;4.46;80.41
86083;BME280;76693;50.220;14.298;2024-02-26T08:04:51;98147.16;;;4.52;80.89
86083;BME280;76693;50.220;14.298;2024-02-26T08:07:16;98154.16;;;4.35;81.57
86083;BME280;76693;50.220;14.298;2024-02-26T08:09:41;98145.41;;;4.75;81.79
86083;BME280;76693;50.220;14.298;2024-02-26T08:12:07;98143.72;;;4.29;81.50
86083;BME280;76693;50.220;14.298;2024-02-26T08:14:33;98145.50;;;4.54;82.17
86083;BME280;76693;50.220;14.298;2024-02-26T08:16:58;98153.44;;;4.62;81.71
86083;BME280;76693;50.220;14.298;2024-02-26T08:19:24;98148.03;;;4.30;81.72
86083;BME280;76693;50.220;14.298;2024-02-26T08:21:49;98149.00;;;4.56;81.71
86083;BME280;76693;50.220;14.298;2024-02-26T08:24:14;98154.81;;;4.52;81.60
86083;BME280;76693;50.220;14.298;2024-02-26T08:26:40;98165.22;;;4.58;81.26
86083;BME280;76693;50.220;14.298;2024-02-26T08:29:05;98163.50;;;4.35;80.93
86083;BME280;76693;50.220;14.298;2024-02-26T08:31:30;98169.19;;;4.28;81.14
86083;BME280;76693;50.220;14.298;2024-02-26T08:33:56;98159.09;;;4.31;81.77
86083;BME280;76693;50.220;14.298;2024-02-26T08:36:21;98174.78;;;3.96;81.43
86083;BME280;76693;50.220;14.298;2024-02-26T08:38:46;98174.28;;;4.50;80.60
86083;BME280;76693;50.220;14.298;2024-02-26T08:41:12;98163.59;;;4.38;81.44
86083;BME280;76693;50.220;14.298;2024-02-26T08:43:38;98169.75;;;4.65;80.21
86083;BME280;76693;50.220;14.298;2024-02-26T08:46:03;98176.59;;;4.66;78.97
86083;BME280;76693;50.220;14.298;2024-02-26T08:48:28;98170.75;;;4.69;80.19
86083;BME280;76693;50.220;14.298;2024-02-26T08:50:54;98173.28;;;4.91;78.27
86083;BME280;76693;50.220;14.298;2024-02-26T08:53:20;98173.34;;;4.70;78.80
86083;BME280;76693;50.220;14.298;2024-02-26T08:55:45;98171.22;;;5.05;79.22
86083;BME280;76693;50.220;14.298;2024-02-26T08:58:11;98167.75;;;5.27;78.20
86083;BME280;76693;50.220;14.298;2024-02-26T09:00:37;98162.16;;;5.39;77.41
86083;BME280;76693;50.220;14.298;2024-02-26T09:03:02;98171.91;;;5.74;77.16
86083;BME280;76693;50.220;14.298;2024-02-26T09:05:28;98159.41;;;5.58;75.57
86083;BME280;76693;50.220;14.298;2024-02-26T09:07:53;98166.31;;;4.87;78.03
86083;BME280;76693;50.220;14.298;2024-02-26T09:10:19;98174.69;;;5.07;77.00
86083;BME280;76693;50.220;14.298;2024-02-26T09:12:44;98174.38;;;4.98;76.76
86083;BME280;76693;50.220;14.298;2024-02-26T09:15:09;98174.31;;;4.96;79.49
86083;BME280;76693;50.220;14.298;2024-02-26T09:17:35;98178.63;;;5.47;78.31
86083;BME280;76693;50.220;14.298;2024-02-26T09:20:02;98178.44;;;5.41;77.00
86083;BME280;76693;50.220;14.298;2024-02-26T09:22:28;98174.13;;;5.14;75.96
86083;BME280;76693;50.220;14.298;2024-02-26T09:24:54;98176.75;;;5.17;77.74
86083;BME280;76693;50.220;14.298;2024-02-26T09:27:19;98176.94;;;5.73;75.60
86083;BME280;76693;50.220;14.298;2024-02-26T09:29:44;98173.66;;;5.26;76.69
86083;BME280;76693;50.220;14.298;2024-02-26T09:32:10;98185.75;;;4.84;78.37
86083;BME280;76693;50.220;14.298;2024-02-26T09:34:35;98186.09;;;5.41;77.54
86083;BME280;76693;50.220;14.298;2024-02-26T09:37:01;98182.31;;;5.81;75.70
86083;BME280;76693;50.220;14.298;2024-02-26T09:39:27;98184.53;;;5.44;75.75
86083;BME280;76693;50.220;14.298;2024-02-26T09:41:53;98181.41;;;5.28;79.09
86083;BME280;76693;50.220;14.298;2024-02-26T09:44:19;98183.28;;;5.33;77.18
86083;BME280;76693;50.220;14.298;2024-02-26T09:46:48;98187.81;;;5.66;77.10
86083;BME280;76693;50.220;14.298;2024-02-26T09:49:19;98188.78;;;5.69;77.42
86083;BME280;76693;50.220;14.298;2024-02-26T09:51:45;98194.81;;;5.46;77.30
86083;BME280;76693;50.220;14.298;2024-02-26T09:54:12;98179.31;;;6.45;75.46
86083;BME280;76693;50.220;14.298;2024-02-26T09:56:39;98181.31;;;6.84;72.25
86083;BME280;76693;50.220;14.298;2024-02-26T09:59:14;98181.63;;;6.37;73.69
86083;BME280;76693;50.220;14.298;2024-02-26T10:01:40;98185.31;;;6.47;73.91
86083;BME280;76693;50.220;14.298;2024-02-26T10:04:08;98176.16;;;6.84;72.21
86083;BME280;76693;50.220;14.298;2024-02-26T10:06:34;98174.03;;;6.99;71.91
86083;BME280;76693;50.220;14.298;2024-02-26T10:08:59;98186.91;;;6.70;72.71
86083;BME280;76693;50.220;14.298;2024-02-26T10:11:25;98178.25;;;6.97;73.22
86083;BME280;76693;50.220;14.298;2024-02-26T10:13:50;98182.81;;;7.07;72.10
86083;BME280;76693;50.220;14.298;2024-02-26T10:16:16;98183.03;;;6.85;72.95
86083;BME280;76693;50.220;14.298;2024-02-26T10:18:48;98184.09;;;7.23;72.96
86083;BME280;76693;50.220;14.298;2024-02-26T10:21:15;98172.56;;;8.05;71.26
86083;BME280;76693;50.220;14.298;2024-02-26T10:23:43;98173.28;;;6.44;72.94
86083;BME280;76693;50.220;14.298;2024-02-26T10:26:10;98176.00;;;6.49;73.06
86083;BME280;76693;50.220;14.298;2024-02-26T10:28:36;98186.31;;;6.52;73.36
86083;BME280;76693;50.220;14.298;2024-02-26T10:31:03;98186.56;;;5.80;75.82
86083;BME280;76693;50.220;14.298;2024-02-26T10:33:32;98199.53;;;5.85;76.62
86083;BME280;76693;50.220;14.298;2024-02-26T10:35:58;98205.44;;;6.35;75.55
86083;BME280;76693;50.220;14.298;2024-02-26T10:38:24;98206.31;;;6.64;74.69
86083;BME280;76693;50.220;14.298;2024-02-26T10:40:50;98206.72;;;7.06;75.86
86083;BME280;76693;50.220;14.298;2024-02-26T10:43:15;98209.50;;;7.14;72.87
86083;BME280;76693;50.220;14.298;2024-02-26T10:45:42;98215.72;;;6.92;74.10
86083;BME280;76693;50.220;14.298;2024-02-26T10:48:13;98205.94;;;6.52;74.39
86083;BME280;76693;50.220;14.298;2024-02-26T10:50:39;98218.09;;;6.86;74.09
86083;BME280;76693;50.220;14.298;2024-02-26T10:53:21;98214.69;;;6.87;73.41
86083;BME280;76693;50.220;14.298;2024-02-26T10:56:00;98214.50;;;7.09;73.95
86083;BME280;76693;50.220;14.298;2024-02-26T10:58:26;98221.00;;;6.69;73.77
86083;BME280;76693;50.220;14.298;2024-02-26T11:00:53;98220.78;;;6.90;74.10
86083;BME280;76693;50.220;14.298;2024-02-26T11:03:22;98216.53;;;6.62;73.72
86083;BME280;76693;50.220;14.298;2024-02-26T11:05:49;98216.81;;;7.00;73.20
86083;BME280;76693;50.220;14.298;2024-02-26T11:08:16;98216.50;;;6.91;73.38
86083;BME280;76693;50.220;14.298;2024-02-26T11:10:43;98208.63;;;7.13;74.15
86083;BME280;76693;50.220;14.298;2024-02-26T11:13:10;98198.78;;;6.68;73.94
86083;BME280;76693;50.220;14.298;2024-02-26T11:15:37;98210.09;;;6.75;73.37
86083;BME280;76693;50.220;14.298;2024-02-26T11:18:04;98214.69;;;6.87;73.22
86083;BME280;76693;50.220;14.298;2024-02-26T11:20:30;98208.44;;;7.07;73.42
86083;BME280;76693;50.220;14.298;2024-02-26T11:22:57;98203.31;;;7.07;72.26
86083;BME280;76693;50.220;14.298;2024-02-26T11:25:22;98211.56;;;6.67;74.39
86083;BME280;76693;50.220;14.298;2024-02-26T11:27:55;98200.59;;;6.72;74.26
86083;BME280;76693;50.220;14.298;2024-02-26T11:30:25;98203.28;;;7.67;72.15
86083;BME280;76693;50.220;14.298;2024-02-26T11:32:52;98207.41;;;7.31;72.91
86083;BME280;76693;50.220;14.298;2024-02-26T11:35:18;98203.16;;;6.72;73.18
86083;BME280;76693;50.220;14.298;2024-02-26T11:37:57;98204.09;;;6.74;74.04
86083;BME280;76693;50.220;14.298;2024-02-26T11:40:26;98207.34;;;6.99;74.37
86083;BME280;76693;50.220;14.298;2024-02-26T11:42:51;98204.91;;;6.73;73.96
86083;BME280;76693;50.220;14.298;2024-02-26T11:48:11;98198.38;;;7.13;73.23
86083;BME280;76693;50.220;14.298;2024-02-26T11:50:42;98197.09;;;6.99;72.11
86083;BME280;76693;50.220;14.298;2024-02-26T11:53:25;98202.03;;;7.21;72.24
86083;BME280;76693;50.220;14.298;2024-02-26T11:58:39;98199.94;;;7.71;70.71
86083;BME280;76693;50.220;14.298;2024-02-26T12:01:05;98196.31;;;7.96;69.91
86083;BME280;76693;50.220;14.298;2024-02-26T12:03:31;98189.16;;;6.90;72.30
86083;BME280;76693;50.220;14.298;2024-02-26T12:05:56;98194.31;;;7.53;71.55
86083;BME280;76693;50.220;14.298;2024-02-26T12:08:21;98195.75;;;7.42;70.70
86083;BME280;76693;50.220;14.298;2024-02-26T12:10:48;98193.00;;;7.04;72.14
86083;BME280;76693;50.220;14.298;2024-02-26T12:13:17;98191.34;;;7.06;72.67
86083;BME280;76693;50.220;14.298;2024-02-26T12:15:56;98177.63;;;8.04;70.14
86083;BME280;76693;50.220;14.298;2024-02-26T12:18:22;98189.38;;;7.94;70.90
86083;BME280;76693;50.220;14.298;2024-02-26T12:21:01;98187.06;;;7.70;70.02
86083;BME280;76693;50.220;14.298;2024-02-26T12:23:27;98181.09;;;7.71;70.31
86083;BME280;76693;50.220;14.298;2024-02-26T12:25:53;98178.28;;;7.95;68.97
86083;BME280;76693;50.220;14.298;2024-02-26T12:28:19;98182.53;;;7.94;70.16
86083;BME280;76693;50.220;14.298;2024-02-26T12:30:44;98185.50;;;8.46;70.70
86083;BME280;76693;50.220;14.298;2024-02-26T12:33:09;98190.28;;;8.31;69.26
86083;BME280;76693;50.220;14.298;2024-02-26T12:35:36;98189.81;;;7.78;69.17
86083;BME280;76693;50.220;14.298;2024-02-26T12:38:01;98193.50;;;8.22;68.90
86083;BME280;76693;50.220;14.298;2024-02-26T12:40:29;98188.06;;;8.10;69.63
86083;BME280;76693;50.220;14.298;2024-02-26T12:42:54;98193.16;;;8.43;68.82
86083;BME280;76693;50.220;14.298;2024-02-26T12:45:22;98188.41;;;8.25;68.92
86083;BME280;76693;50.220;14.298;2024-02-26T12:47:48;98195.84;;;8.47;68.24
86083;BME280;76693;50.220;14.298;2024-02-26T12:50:16;98191.84;;;8.60;67.45
86083;BME280;76693;50.220;14.298;2024-02-26T12:52:46;98192.25;;;8.80;66.80
86083;BME280;76693;50.220;14.298;2024-02-26T12:55:18;98189.94;;;8.17;69.00
86083;BME280;76693;50.220;14.298;2024-02-26T12:57:44;98199.28;;;8.49;68.28
86083;BME280;76693;50.220;14.298;2024-02-26T13:00:16;98204.63;;;8.22;70.14